Terminal Aerodrome Forecast
Issued by NWS

Home | Current Version | Previous Version | Text Only | Print | Product List | Glossary On
Versions: 1 2 3 4 5 6 7 8 9 10 11 12 13
000
FTUS46 KMFR 292340
TAFRBG
TAF
KRBG 292340Z 3000/3024 36008KT P6SM SCT250
     FM300400 VRB03KT P6SM BKN250
     FM301000 00000KT P6SM OVC015
     FM301700 VRB03KT P6SM SCT020 SCT100 BKN250=

USA.gov is the U.S. government's official web portal to all federal, state and local government web resources and services.